sensor_id;sensor_type;location;lat;lon;timestamp;P1;durP1;ratioP1;P2;durP2;ratioP2
68744;SDS011;55731;45.456;11.064;2022-10-28T00:01:20;8.70;;;2.70;;
68744;SDS011;55731;45.456;11.064;2022-10-28T00:03:54;5.10;;;2.60;;
68744;SDS011;55731;45.456;11.064;2022-10-28T00:06:31;6.50;;;2.40;;
68744;SDS011;55731;45.456;11.064;2022-10-28T00:09:06;4.60;;;2.40;;
68744;SDS011;55731;45.456;11.064;2022-10-28T00:11:41;4.50;;;2.00;;
68744;SDS011;55731;45.456;11.064;2022-10-28T00:14:14;6.60;;;2.50;;
68744;SDS011;55731;45.456;11.064;2022-10-28T00:16:47;4.60;;;2.20;;
68744;SDS011;55731;45.456;11.064;2022-10-28T00:19:22;5.00;;;2.10;;
68744;SDS011;55731;45.456;11.064;2022-10-28T00:21:55;6.30;;;2.40;;
68744;SDS011;55731;45.456;11.064;2022-10-28T00:24:28;5.60;;;2.70;;
68744;SDS011;55731;45.456;11.064;2022-10-28T00:27:01;6.70;;;2.60;;
68744;SDS011;55731;45.456;11.064;2022-10-28T00:29:34;6.50;;;2.00;;
68744;SDS011;55731;45.456;11.064;2022-10-28T00:32:07;6.00;;;2.20;;
68744;SDS011;55731;45.456;11.064;2022-10-28T00:34:40;4.80;;;2.20;;
68744;SDS011;55731;45.456;11.064;2022-10-28T00:37:13;6.30;;;2.30;;
68744;SDS011;55731;45.456;11.064;2022-10-28T00:39:46;4.60;;;2.10;;
68744;SDS011;55731;45.456;11.064;2022-10-28T00:42:21;4.90;;;2.10;;
68744;SDS011;55731;45.456;11.064;2022-10-28T00:44:58;4.30;;;1.90;;
68744;SDS011;55731;45.456;11.064;2022-10-28T00:47:53;3.40;;;1.90;;
68744;SDS011;55731;45.456;11.064;2022-10-28T00:50:46;4.40;;;2.10;;
68744;SDS011;55731;45.456;11.064;2022-10-28T00:53:22;9.10;;;4.20;;
68744;SDS011;55731;45.456;11.064;2022-10-28T00:56:00;14.80;;;7.30;;
68744;SDS011;55731;45.456;11.064;2022-10-28T00:58:34;22.60;;;11.60;;
68744;SDS011;55731;45.456;11.064;2022-10-28T01:01:08;25.10;;;13.80;;
68744;SDS011;55731;45.456;11.064;2022-10-28T01:03:41;22.50;;;12.90;;
68744;SDS011;55731;45.456;11.064;2022-10-28T01:06:13;16.70;;;9.20;;
68744;SDS011;55731;45.456;11.064;2022-10-28T01:08:47;13.50;;;6.00;;
68744;SDS011;55731;45.456;11.064;2022-10-28T01:11:47;8.60;;;3.60;;
68744;SDS011;55731;45.456;11.064;2022-10-28T01:14:38;8.10;;;3.60;;
68744;SDS011;55731;45.456;11.064;2022-10-28T01:17:37;6.60;;;2.30;;
68744;SDS011;55731;45.456;11.064;2022-10-28T01:23:51;5.00;;;2.40;;
68744;SDS011;55731;45.456;11.064;2022-10-28T01:30:12;5.10;;;2.40;;
68744;SDS011;55731;45.456;11.064;2022-10-28T01:32:56;4.40;;;2.20;;
68744;SDS011;55731;45.456;11.064;2022-10-28T01:35:42;4.40;;;2.10;;
68744;SDS011;55731;45.456;11.064;2022-10-28T01:38:28;4.70;;;2.00;;
68744;SDS011;55731;45.456;11.064;2022-10-28T01:41:10;3.40;;;2.10;;
68744;SDS011;55731;45.456;11.064;2022-10-28T01:43:51;4.70;;;2.00;;
68744;SDS011;55731;45.456;11.064;2022-10-28T01:46:33;7.40;;;2.40;;
68744;SDS011;55731;45.456;11.064;2022-10-28T01:49:17;5.70;;;2.20;;
68744;SDS011;55731;45.456;11.064;2022-10-28T01:51:53;7.10;;;2.50;;
68744;SDS011;55731;45.456;11.064;2022-10-28T01:54:32;6.90;;;2.90;;
68744;SDS011;55731;45.456;11.064;2022-10-28T01:57:07;6.90;;;2.30;;
68744;SDS011;55731;45.456;11.064;2022-10-28T01:59:42;7.20;;;2.30;;
68744;SDS011;55731;45.456;11.064;2022-10-28T02:02:19;5.30;;;2.30;;
68744;SDS011;55731;45.456;11.064;2022-10-28T02:05:00;9.90;;;2.80;;
68744;SDS011;55731;45.456;11.064;2022-10-28T02:07:51;5.20;;;2.00;;
68744;SDS011;55731;45.456;11.064;2022-10-28T02:10:32;9.10;;;2.60;;
68744;SDS011;55731;45.456;11.064;2022-10-28T02:13:14;5.60;;;2.50;;
68744;SDS011;55731;45.456;11.064;2022-10-28T02:15:55;6.20;;;2.70;;
68744;SDS011;55731;45.456;11.064;2022-10-28T02:18:42;8.00;;;2.70;;
68744;SDS011;55731;45.456;11.064;2022-10-28T02:21:30;9.70;;;3.40;;
68744;SDS011;55731;45.456;11.064;2022-10-28T02:24:18;8.30;;;3.60;;
68744;SDS011;55731;45.456;11.064;2022-10-28T02:26:59;6.10;;;3.00;;
68744;SDS011;55731;45.456;11.064;2022-10-28T02:29:40;6.40;;;3.20;;
68744;SDS011;55731;45.456;11.064;2022-10-28T02:32:20;7.00;;;2.00;;
68744;SDS011;55731;45.456;11.064;2022-10-28T02:34:57;6.90;;;2.10;;
68744;SDS011;55731;45.456;11.064;2022-10-28T02:37:35;5.40;;;2.30;;
68744;SDS011;55731;45.456;11.064;2022-10-28T02:40:16;4.50;;;1.90;;
68744;SDS011;55731;45.456;11.064;2022-10-28T02:42:57;4.20;;;2.10;;
68744;SDS011;55731;45.456;11.064;2022-10-28T02:45:36;4.60;;;2.00;;
68744;SDS011;55731;45.456;11.064;2022-10-28T02:48:17;5.60;;;2.10;;
68744;SDS011;55731;45.456;11.064;2022-10-28T02:50:59;6.80;;;2.50;;
68744;SDS011;55731;45.456;11.064;2022-10-28T02:53:46;7.50;;;2.20;;
68744;SDS011;55731;45.456;11.064;2022-10-28T02:56:27;9.90;;;5.10;;
68744;SDS011;55731;45.456;11.064;2022-10-28T02:59:03;12.20;;;7.60;;
68744;SDS011;55731;45.456;11.064;2022-10-28T03:01:41;15.30;;;8.40;;
68744;SDS011;55731;45.456;11.064;2022-10-28T03:04:13;14.00;;;8.40;;
68744;SDS011;55731;45.456;11.064;2022-10-28T03:06:46;15.90;;;8.50;;
68744;SDS011;55731;45.456;11.064;2022-10-28T03:09:19;15.70;;;8.50;;
68744;SDS011;55731;45.456;11.064;2022-10-28T03:11:52;17.70;;;10.30;;
68744;SDS011;55731;45.456;11.064;2022-10-28T03:14:26;19.70;;;11.20;;
68744;SDS011;55731;45.456;11.064;2022-10-28T03:16:58;23.30;;;10.60;;
68744;SDS011;55731;45.456;11.064;2022-10-28T03:19:32;21.60;;;9.10;;
68744;SDS011;55731;45.456;11.064;2022-10-28T03:22:05;18.20;;;10.50;;
68744;SDS011;55731;45.456;11.064;2022-10-28T03:24:38;21.90;;;11.10;;
68744;SDS011;55731;45.456;11.064;2022-10-28T03:27:11;16.60;;;9.10;;
68744;SDS011;55731;45.456;11.064;2022-10-28T03:29:43;16.80;;;9.60;;
68744;SDS011;55731;45.456;11.064;2022-10-28T03:32:16;17.50;;;10.20;;
68744;SDS011;55731;45.456;11.064;2022-10-28T03:34:49;16.10;;;8.50;;
68744;SDS011;55731;45.456;11.064;2022-10-28T03:37:22;14.90;;;7.90;;
68744;SDS011;55731;45.456;11.064;2022-10-28T03:39:55;12.40;;;5.60;;
68744;SDS011;55731;45.456;11.064;2022-10-28T03:42:29;10.30;;;4.60;;
68744;SDS011;55731;45.456;11.064;2022-10-28T03:45:06;6.80;;;3.30;;
68744;SDS011;55731;45.456;11.064;2022-10-28T03:47:40;7.70;;;3.70;;
68744;SDS011;55731;45.456;11.064;2022-10-28T03:50:14;6.80;;;3.00;;
68744;SDS011;55731;45.456;11.064;2022-10-28T03:52:47;7.70;;;3.20;;
68744;SDS011;55731;45.456;11.064;2022-10-28T03:55:19;4.40;;;1.90;;
68744;SDS011;55731;45.456;11.064;2022-10-28T03:57:53;6.80;;;2.90;;
68744;SDS011;55731;45.456;11.064;2022-10-28T04:00:29;9.10;;;4.20;;
68744;SDS011;55731;45.456;11.064;2022-10-28T04:03:02;13.00;;;6.10;;
68744;SDS011;55731;45.456;11.064;2022-10-28T04:05:35;11.70;;;5.90;;
68744;SDS011;55731;45.456;11.064;2022-10-28T04:08:08;10.50;;;6.00;;
68744;SDS011;55731;45.456;11.064;2022-10-28T04:10:41;15.10;;;7.10;;
68744;SDS011;55731;45.456;11.064;2022-10-28T04:13:16;9.60;;;4.80;;
68744;SDS011;55731;45.456;11.064;2022-10-28T04:15:49;10.10;;;5.20;;
68744;SDS011;55731;45.456;11.064;2022-10-28T04:18:22;8.20;;;4.00;;
68744;SDS011;55731;45.456;11.064;2022-10-28T04:20:55;10.60;;;4.50;;
68744;SDS011;55731;45.456;11.064;2022-10-28T04:23:27;8.40;;;3.90;;
68744;SDS011;55731;45.456;11.064;2022-10-28T04:26:01;9.50;;;4.50;;
68744;SDS011;55731;45.456;11.064;2022-10-28T04:28:34;7.20;;;4.10;;
68744;SDS011;55731;45.456;11.064;2022-10-28T04:31:07;8.30;;;3.90;;
68744;SDS011;55731;45.456;11.064;2022-10-28T04:33:40;6.40;;;3.50;;
68744;SDS011;55731;45.456;11.064;2022-10-28T04:36:13;10.20;;;3.90;;
68744;SDS011;55731;45.456;11.064;2022-10-28T04:38:46;5.70;;;2.40;;
68744;SDS011;55731;45.456;11.064;2022-10-28T04:41:20;9.00;;;4.10;;
68744;SDS011;55731;45.456;11.064;2022-10-28T04:43:53;7.10;;;4.00;;
68744;SDS011;55731;45.456;11.064;2022-10-28T04:46:26;9.80;;;3.50;;
68744;SDS011;55731;45.456;11.064;2022-10-28T04:48:59;7.40;;;3.40;;
68744;SDS011;55731;45.456;11.064;2022-10-28T04:51:33;8.30;;;3.60;;
68744;SDS011;55731;45.456;11.064;2022-10-28T04:54:07;7.30;;;3.80;;
68744;SDS011;55731;45.456;11.064;2022-10-28T04:56:40;11.90;;;4.40;;
68744;SDS011;55731;45.456;11.064;2022-10-28T04:59:13;8.50;;;5.20;;
68744;SDS011;55731;45.456;11.064;2022-10-28T05:01:47;16.00;;;6.20;;
68744;SDS011;55731;45.456;11.064;2022-10-28T05:04:20;8.90;;;4.70;;
68744;SDS011;55731;45.456;11.064;2022-10-28T05:06:53;10.60;;;6.20;;
68744;SDS011;55731;45.456;11.064;2022-10-28T05:09:26;10.40;;;5.30;;
68744;SDS011;55731;45.456;11.064;2022-10-28T05:11:59;17.00;;;6.50;;
68744;SDS011;55731;45.456;11.064;2022-10-28T05:14:32;12.40;;;6.00;;
68744;SDS011;55731;45.456;11.064;2022-10-28T05:17:06;12.40;;;6.20;;
68744;SDS011;55731;45.456;11.064;2022-10-28T05:19:40;10.70;;;6.00;;
68744;SDS011;55731;45.456;11.064;2022-10-28T05:22:13;12.80;;;6.90;;
68744;SDS011;55731;45.456;11.064;2022-10-28T05:24:45;13.00;;;5.80;;
68744;SDS011;55731;45.456;11.064;2022-10-28T05:27:18;10.20;;;5.20;;
68744;SDS011;55731;45.456;11.064;2022-10-28T05:29:51;10.30;;;5.40;;
68744;SDS011;55731;45.456;11.064;2022-10-28T05:32:25;12.90;;;4.60;;
68744;SDS011;55731;45.456;11.064;2022-10-28T05:34:57;9.40;;;4.40;;
68744;SDS011;55731;45.456;11.064;2022-10-28T05:37:30;10.20;;;4.40;;
68744;SDS011;55731;45.456;11.064;2022-10-28T05:40:04;8.60;;;3.70;;
68744;SDS011;55731;45.456;11.064;2022-10-28T05:42:41;6.90;;;3.10;;
68744;SDS011;55731;45.456;11.064;2022-10-28T05:45:14;7.20;;;3.70;;
68744;SDS011;55731;45.456;11.064;2022-10-28T05:47:48;10.60;;;4.90;;
68744;SDS011;55731;45.456;11.064;2022-10-28T05:50:21;10.00;;;5.00;;
68744;SDS011;55731;45.456;11.064;2022-10-28T05:52:54;9.90;;;4.70;;
68744;SDS011;55731;45.456;11.064;2022-10-28T05:55:28;10.90;;;5.20;;
68744;SDS011;55731;45.456;11.064;2022-10-28T05:58:01;10.50;;;5.20;;
68744;SDS011;55731;45.456;11.064;2022-10-28T06:00:34;10.20;;;4.90;;
68744;SDS011;55731;45.456;11.064;2022-10-28T06:03:09;11.00;;;5.80;;
68744;SDS011;55731;45.456;11.064;2022-10-28T06:05:44;9.50;;;5.20;;
68744;SDS011;55731;45.456;11.064;2022-10-28T06:08:17;11.40;;;5.70;;
68744;SDS011;55731;45.456;11.064;2022-10-28T06:10:54;10.70;;;5.60;;
68744;SDS011;55731;45.456;11.064;2022-10-28T06:13:27;10.10;;;6.00;;
68744;SDS011;55731;45.456;11.064;2022-10-28T06:16:00;11.00;;;5.50;;
68744;SDS011;55731;45.456;11.064;2022-10-28T06:18:32;12.60;;;5.50;;
68744;SDS011;55731;45.456;11.064;2022-10-28T06:21:06;10.20;;;5.70;;
68744;SDS011;55731;45.456;11.064;2022-10-28T06:23:40;12.60;;;6.00;;
68744;SDS011;55731;45.456;11.064;2022-10-28T06:26:12;11.50;;;5.90;;
68744;SDS011;55731;45.456;11.064;2022-10-28T06:28:47;12.30;;;5.50;;
68744;SDS011;55731;45.456;11.064;2022-10-28T06:31:20;11.00;;;5.70;;
68744;SDS011;55731;45.456;11.064;2022-10-28T06:33:53;12.50;;;5.90;;
68744;SDS011;55731;45.456;11.064;2022-10-28T06:36:27;11.30;;;6.00;;
68744;SDS011;55731;45.456;11.064;2022-10-28T06:39:02;12.80;;;5.60;;
68744;SDS011;55731;45.456;11.064;2022-10-28T06:41:35;14.00;;;5.70;;
68744;SDS011;55731;45.456;11.064;2022-10-28T06:44:08;18.10;;;6.50;;
68744;SDS011;55731;45.456;11.064;2022-10-28T06:46:41;14.60;;;6.30;;
68744;SDS011;55731;45.456;11.064;2022-10-28T06:49:14;9.60;;;5.00;;
68744;SDS011;55731;45.456;11.064;2022-10-28T06:51:47;17.60;;;5.90;;
68744;SDS011;55731;45.456;11.064;2022-10-28T06:54:20;15.10;;;6.50;;
68744;SDS011;55731;45.456;11.064;2022-10-28T06:56:54;15.00;;;6.00;;
68744;SDS011;55731;45.456;11.064;2022-10-28T06:59:26;10.80;;;5.80;;
68744;SDS011;55731;45.456;11.064;2022-10-28T07:01:59;12.70;;;5.60;;
68744;SDS011;55731;45.456;11.064;2022-10-28T07:04:33;13.10;;;5.50;;
68744;SDS011;55731;45.456;11.064;2022-10-28T07:07:05;16.60;;;5.90;;
68744;SDS011;55731;45.456;11.064;2022-10-28T07:09:39;15.70;;;6.30;;
68744;SDS011;55731;45.456;11.064;2022-10-28T07:12:12;12.40;;;6.60;;
68744;SDS011;55731;45.456;11.064;2022-10-28T07:14:47;12.70;;;5.70;;
68744;SDS011;55731;45.456;11.064;2022-10-28T07:17:19;13.80;;;5.70;;
68744;SDS011;55731;45.456;11.064;2022-10-28T07:19:52;12.40;;;5.70;;
68744;SDS011;55731;45.456;11.064;2022-10-28T07:22:25;11.30;;;5.60;;
68744;SDS011;55731;45.456;11.064;2022-10-28T07:24:58;11.40;;;6.10;;
68744;SDS011;55731;45.456;11.064;2022-10-28T07:27:30;8.90;;;5.40;;
68744;SDS011;55731;45.456;11.064;2022-10-28T07:30:05;11.90;;;5.20;;
68744;SDS011;55731;45.456;11.064;2022-10-28T07:32:43;10.30;;;5.50;;
68744;SDS011;55731;45.456;11.064;2022-10-28T07:35:17;8.40;;;5.00;;
68744;SDS011;55731;45.456;11.064;2022-10-28T07:37:51;12.20;;;5.10;;
68744;SDS011;55731;45.456;11.064;2022-10-28T07:40:24;13.50;;;5.70;;
68744;SDS011;55731;45.456;11.064;2022-10-28T07:42:57;8.70;;;4.60;;
68744;SDS011;55731;45.456;11.064;2022-10-28T07:45:30;12.20;;;4.50;;
68744;SDS011;55731;45.456;11.064;2022-10-28T07:48:04;10.40;;;4.90;;
68744;SDS011;55731;45.456;11.064;2022-10-28T07:50:40;9.20;;;5.00;;
68744;SDS011;55731;45.456;11.064;2022-10-28T07:53:13;13.50;;;5.00;;
68744;SDS011;55731;45.456;11.064;2022-10-28T07:55:52;8.60;;;5.10;;
68744;SDS011;55731;45.456;11.064;2022-10-28T07:58:27;9.30;;;4.90;;
68744;SDS011;55731;45.456;11.064;2022-10-28T08:01:04;12.20;;;4.50;;
68744;SDS011;55731;45.456;11.064;2022-10-28T08:03:38;11.70;;;4.90;;
68744;SDS011;55731;45.456;11.064;2022-10-28T08:06:13;10.60;;;5.50;;
68744;SDS011;55731;45.456;11.064;2022-10-28T08:08:51;11.10;;;4.60;;
68744;SDS011;55731;45.456;11.064;2022-10-28T08:11:25;12.50;;;4.30;;
68744;SDS011;55731;45.456;11.064;2022-10-28T08:14:00;10.30;;;4.40;;
68744;SDS011;55731;45.456;11.064;2022-10-28T08:16:33;10.60;;;4.50;;
68744;SDS011;55731;45.456;11.064;2022-10-28T08:19:06;9.50;;;4.40;;
68744;SDS011;55731;45.456;11.064;2022-10-28T08:21:40;11.10;;;4.80;;
68744;SDS011;55731;45.456;11.064;2022-10-28T08:24:12;9.50;;;4.70;;
68744;SDS011;55731;45.456;11.064;2022-10-28T08:26:45;7.90;;;3.90;;
68744;SDS011;55731;45.456;11.064;2022-10-28T08:29:18;10.50;;;4.10;;
68744;SDS011;55731;45.456;11.064;2022-10-28T08:31:57;11.80;;;4.00;;
68744;SDS011;55731;45.456;11.064;2022-10-28T08:34:30;11.60;;;4.10;;
68744;SDS011;55731;45.456;11.064;2022-10-28T08:37:06;8.50;;;4.40;;
68744;SDS011;55731;45.456;11.064;2022-10-28T08:39:39;12.70;;;4.30;;
68744;SDS011;55731;45.456;11.064;2022-10-28T08:42:25;10.20;;;4.40;;
68744;SDS011;55731;45.456;11.064;2022-10-28T08:48:14;12.10;;;6.80;;
68744;SDS011;55731;45.456;11.064;2022-10-28T08:51:00;15.30;;;6.20;;
68744;SDS011;55731;45.456;11.064;2022-10-28T08:53:43;16.40;;;8.40;;
68744;SDS011;55731;45.456;11.064;2022-10-28T08:56:29;18.80;;;8.80;;
68744;SDS011;55731;45.456;11.064;2022-10-28T08:59:05;20.00;;;9.20;;
68744;SDS011;55731;45.456;11.064;2022-10-28T09:01:45;13.70;;;7.90;;
68744;SDS011;55731;45.456;11.064;2022-10-28T09:04:26;16.70;;;7.80;;
68744;SDS011;55731;45.456;11.064;2022-10-28T09:07:10;17.70;;;7.40;;
68744;SDS011;55731;45.456;11.064;2022-10-28T09:09:47;17.80;;;8.30;;
68744;SDS011;55731;45.456;11.064;2022-10-28T09:12:31;17.10;;;8.50;;
68744;SDS011;55731;45.456;11.064;2022-10-28T09:15:22;16.60;;;8.20;;
68744;SDS011;55731;45.456;11.064;2022-10-28T09:18:15;17.30;;;6.80;;
68744;SDS011;55731;45.456;11.064;2022-10-28T09:20:52;14.60;;;7.20;;
68744;SDS011;55731;45.456;11.064;2022-10-28T09:23:29;13.60;;;6.80;;
68744;SDS011;55731;45.456;11.064;2022-10-28T09:26:14;14.70;;;7.00;;
68744;SDS011;55731;45.456;11.064;2022-10-28T09:29:02;12.10;;;6.70;;
68744;SDS011;55731;45.456;11.064;2022-10-28T09:31:47;15.50;;;6.90;;
68744;SDS011;55731;45.456;11.064;2022-10-28T09:34:31;19.20;;;8.90;;
68744;SDS011;55731;45.456;11.064;2022-10-28T09:37:14;17.40;;;7.90;;
68744;SDS011;55731;45.456;11.064;2022-10-28T09:39:54;15.70;;;7.70;;
68744;SDS011;55731;45.456;11.064;2022-10-28T09:42:31;14.50;;;6.90;;
68744;SDS011;55731;45.456;11.064;2022-10-28T09:45:15;15.10;;;8.80;;
68744;SDS011;55731;45.456;11.064;2022-10-28T09:47:56;19.20;;;8.40;;
68744;SDS011;55731;45.456;11.064;2022-10-28T09:50:32;16.50;;;7.80;;
68744;SDS011;55731;45.456;11.064;2022-10-28T09:53:13;13.50;;;7.50;;
68744;SDS011;55731;45.456;11.064;2022-10-28T09:55:55;14.00;;;7.90;;
68744;SDS011;55731;45.456;11.064;2022-10-28T09:58:28;14.80;;;7.60;;
68744;SDS011;55731;45.456;11.064;2022-10-28T10:01:02;12.90;;;7.30;;
68744;SDS011;55731;45.456;11.064;2022-10-28T10:03:35;15.70;;;8.20;;
68744;SDS011;55731;45.456;11.064;2022-10-28T10:06:13;13.30;;;7.60;;
68744;SDS011;55731;45.456;11.064;2022-10-28T10:08:48;17.00;;;7.60;;
68744;SDS011;55731;45.456;11.064;2022-10-28T10:11:28;21.70;;;7.90;;
68744;SDS011;55731;45.456;11.064;2022-10-28T10:14:08;17.10;;;8.80;;
68744;SDS011;55731;45.456;11.064;2022-10-28T10:16:44;20.20;;;8.50;;
68744;SDS011;55731;45.456;11.064;2022-10-28T10:19:20;20.10;;;9.10;;
68744;SDS011;55731;45.456;11.064;2022-10-28T10:21:54;20.00;;;8.60;;
68744;SDS011;55731;45.456;11.064;2022-10-28T10:24:30;17.00;;;9.10;;
68744;SDS011;55731;45.456;11.064;2022-10-28T10:27:17;18.40;;;10.80;;
68744;SDS011;55731;45.456;11.064;2022-10-28T10:29:52;15.80;;;10.00;;
68744;SDS011;55731;45.456;11.064;2022-10-28T10:32:28;22.70;;;9.40;;
68744;SDS011;55731;45.456;11.064;2022-10-28T10:35:19;19.10;;;8.90;;
68744;SDS011;55731;45.456;11.064;2022-10-28T10:37:58;19.00;;;10.90;;
68744;SDS011;55731;45.456;11.064;2022-10-28T10:40:32;17.80;;;10.70;;
68744;SDS011;55731;45.456;11.064;2022-10-28T10:43:22;22.50;;;10.70;;
68744;SDS011;55731;45.456;11.064;2022-10-28T10:46:11;16.10;;;9.50;;
68744;SDS011;55731;45.456;11.064;2022-10-28T10:48:45;17.10;;;10.00;;
68744;SDS011;55731;45.456;11.064;2022-10-28T10:51:35;17.00;;;9.20;;
68744;SDS011;55731;45.456;11.064;2022-10-28T10:54:14;21.20;;;9.30;;
68744;SDS011;55731;45.456;11.064;2022-10-28T10:56:47;21.00;;;10.40;;
68744;SDS011;55731;45.456;11.064;2022-10-28T10:59:24;19.20;;;11.90;;
68744;SDS011;55731;45.456;11.064;2022-10-28T11:02:00;18.50;;;11.10;;
68744;SDS011;55731;45.456;11.064;2022-10-28T11:04:34;20.30;;;11.20;;
68744;SDS011;55731;45.456;11.064;2022-10-28T11:07:14;20.20;;;11.40;;
68744;SDS011;55731;45.456;11.064;2022-10-28T11:09:49;21.30;;;11.60;;
68744;SDS011;55731;45.456;11.064;2022-10-28T11:12:28;20.60;;;10.40;;
68744;SDS011;55731;45.456;11.064;2022-10-28T11:15:18;18.50;;;10.70;;
68744;SDS011;55731;45.456;11.064;2022-10-28T11:18:01;20.50;;;11.10;;
68744;SDS011;55731;45.456;11.064;2022-10-28T11:20:52;20.60;;;11.50;;
68744;SDS011;55731;45.456;11.064;2022-10-28T11:23:39;24.60;;;12.20;;
68744;SDS011;55731;45.456;11.064;2022-10-28T11:26:22;22.40;;;11.90;;
68744;SDS011;55731;45.456;11.064;2022-10-28T11:29:07;19.10;;;11.10;;
68744;SDS011;55731;45.456;11.064;2022-10-28T11:31:54;20.20;;;11.80;;
68744;SDS011;55731;45.456;11.064;2022-10-28T11:34:48;16.30;;;10.90;;
68744;SDS011;55731;45.456;11.064;2022-10-28T11:40:38;18.60;;;10.40;;
68744;SDS011;55731;45.456;11.064;2022-10-28T11:43:25;20.30;;;11.00;;
68744;SDS011;55731;45.456;11.064;2022-10-28T11:46:12;20.40;;;11.40;;
68744;SDS011;55731;45.456;11.064;2022-10-28T11:49:18;28.00;;;10.40;;
68744;SDS011;55731;45.456;11.064;2022-10-28T11:52:19;20.10;;;10.20;;
68744;SDS011;55731;45.456;11.064;2022-10-28T11:55:04;20.80;;;10.40;;
68744;SDS011;55731;45.456;11.064;2022-10-28T11:57:54;20.00;;;10.30;;
68744;SDS011;55731;45.456;11.064;2022-10-28T12:00:48;18.40;;;10.20;;
68744;SDS011;55731;45.456;11.064;2022-10-28T12:03:42;19.50;;;11.00;;
68744;SDS011;55731;45.456;11.064;2022-10-28T12:06:58;15.00;;;8.40;;
68744;SDS011;55731;45.456;11.064;2022-10-28T12:09:47;13.20;;;7.50;;
68744;SDS011;55731;45.456;11.064;2022-10-28T12:12:38;16.40;;;9.20;;
68744;SDS011;55731;45.456;11.064;2022-10-28T12:15:23;17.80;;;9.20;;
68744;SDS011;55731;45.456;11.064;2022-10-28T12:18:09;17.60;;;9.10;;
68744;SDS011;55731;45.456;11.064;2022-10-28T12:20:53;16.70;;;8.50;;
68744;SDS011;55731;45.456;11.064;2022-10-28T12:23:35;14.80;;;8.30;;
68744;SDS011;55731;45.456;11.064;2022-10-28T12:26:14;16.80;;;7.70;;
68744;SDS011;55731;45.456;11.064;2022-10-28T12:28:51;16.40;;;7.70;;
68744;SDS011;55731;45.456;11.064;2022-10-28T12:31:31;13.70;;;7.40;;
68744;SDS011;55731;45.456;11.064;2022-10-28T12:34:15;13.50;;;6.80;;
68744;SDS011;55731;45.456;11.064;2022-10-28T12:36:57;14.50;;;7.10;;
68744;SDS011;55731;45.456;11.064;2022-10-28T12:39:36;12.40;;;7.00;;
68744;SDS011;55731;45.456;11.064;2022-10-28T12:42:17;14.20;;;7.00;;
68744;SDS011;55731;45.456;11.064;2022-10-28T12:44:57;15.80;;;8.10;;
68744;SDS011;55731;45.456;11.064;2022-10-28T12:47:37;15.50;;;7.80;;
68744;SDS011;55731;45.456;11.064;2022-10-28T12:50:19;14.10;;;6.40;;
68744;SDS011;55731;45.456;11.064;2022-10-28T12:56:10;12.90;;;6.30;;
68744;SDS011;55731;45.456;11.064;2022-10-28T12:58:56;16.90;;;6.30;;
68744;SDS011;55731;45.456;11.064;2022-10-28T13:01:35;13.10;;;6.50;;
68744;SDS011;55731;45.456;11.064;2022-10-28T13:04:11;13.60;;;6.10;;
68744;SDS011;55731;45.456;11.064;2022-10-28T13:07:00;9.70;;;6.00;;
68744;SDS011;55731;45.456;11.064;2022-10-28T13:09:57;11.00;;;6.20;;
68744;SDS011;55731;45.456;11.064;2022-10-28T13:20:09;10.30;;;5.80;;
68744;SDS011;55731;45.456;11.064;2022-10-28T13:23:07;10.70;;;5.20;;
68744;SDS011;55731;45.456;11.064;2022-10-28T13:25:59;12.00;;;5.60;;
68744;SDS011;55731;45.456;11.064;2022-10-28T13:28:45;13.10;;;6.10;;
68744;SDS011;55731;45.456;11.064;2022-10-28T13:31:18;13.70;;;6.10;;
68744;SDS011;55731;45.456;11.064;2022-10-28T13:33:55;12.00;;;5.90;;
68744;SDS011;55731;45.456;11.064;2022-10-28T13:36:31;13.00;;;5.90;;
68744;SDS011;55731;45.456;11.064;2022-10-28T13:39:20;10.20;;;5.60;;
68744;SDS011;55731;45.456;11.064;2022-10-28T13:45:43;14.50;;;6.30;;
68744;SDS011;55731;45.456;11.064;2022-10-28T13:51:48;12.80;;;6.10;;
68744;SDS011;55731;45.456;11.064;2022-10-28T13:54:30;16.10;;;6.00;;
68744;SDS011;55731;45.456;11.064;2022-10-28T13:57:25;13.20;;;6.10;;
68744;SDS011;55731;45.456;11.064;2022-10-28T14:00:03;12.70;;;6.30;;
68744;SDS011;55731;45.456;11.064;2022-10-28T14:02:58;14.80;;;5.40;;
68744;SDS011;55731;45.456;11.064;2022-10-28T14:05:51;11.20;;;6.20;;
68744;SDS011;55731;45.456;11.064;2022-10-28T14:08:30;12.40;;;4.70;;
68744;SDS011;55731;45.456;11.064;2022-10-28T14:11:10;10.10;;;3.30;;
68744;SDS011;55731;45.456;11.064;2022-10-28T14:13:53;8.10;;;3.30;;
68744;SDS011;55731;45.456;11.064;2022-10-28T14:16:32;10.50;;;3.00;;
68744;SDS011;55731;45.456;11.064;2022-10-28T14:19:16;10.60;;;3.10;;
68744;SDS011;55731;45.456;11.064;2022-10-28T14:21:54;6.90;;;2.50;;
68744;SDS011;55731;45.456;11.064;2022-10-28T14:24:34;6.00;;;2.30;;
68744;SDS011;55731;45.456;11.064;2022-10-28T14:30:21;8.40;;;2.70;;
68744;SDS011;55731;45.456;11.064;2022-10-28T14:36:17;5.30;;;2.30;;
68744;SDS011;55731;45.456;11.064;2022-10-28T14:39:15;8.40;;;2.60;;
68744;SDS011;55731;45.456;11.064;2022-10-28T14:42:18;7.10;;;3.20;;
68744;SDS011;55731;45.456;11.064;2022-10-28T14:45:13;6.40;;;2.90;;
68744;SDS011;55731;45.456;11.064;2022-10-28T14:50:58;6.30;;;2.80;;
68744;SDS011;55731;45.456;11.064;2022-10-28T14:53:35;10.00;;;3.20;;
68744;SDS011;55731;45.456;11.064;2022-10-28T14:56:15;8.90;;;3.00;;
68744;SDS011;55731;45.456;11.064;2022-10-28T14:58:51;8.60;;;3.30;;
68744;SDS011;55731;45.456;11.064;2022-10-28T15:01:27;9.10;;;3.20;;
68744;SDS011;55731;45.456;11.064;2022-10-28T15:04:18;8.30;;;3.40;;
68744;SDS011;55731;45.456;11.064;2022-10-28T15:06:52;8.60;;;3.20;;
68744;SDS011;55731;45.456;11.064;2022-10-28T15:09:27;6.20;;;3.70;;
68744;SDS011;55731;45.456;11.064;2022-10-28T15:12:07;9.60;;;4.10;;
68744;SDS011;55731;45.456;11.064;2022-10-28T15:14:46;11.20;;;3.80;;
68744;SDS011;55731;45.456;11.064;2022-10-28T15:17:22;14.50;;;5.00;;
68744;SDS011;55731;45.456;11.064;2022-10-28T15:19:57;7.80;;;4.20;;
68744;SDS011;55731;45.456;11.064;2022-10-28T15:22:32;11.00;;;4.80;;
68744;SDS011;55731;45.456;11.064;2022-10-28T15:25:09;13.30;;;5.30;;
68744;SDS011;55731;45.456;11.064;2022-10-28T15:27:44;11.10;;;5.10;;
68744;SDS011;55731;45.456;11.064;2022-10-28T15:30:23;12.30;;;4.60;;
68744;SDS011;55731;45.456;11.064;2022-10-28T15:33:19;12.80;;;4.50;;
68744;SDS011;55731;45.456;11.064;2022-10-28T15:36:11;11.80;;;4.40;;
68744;SDS011;55731;45.456;11.064;2022-10-28T15:38:48;13.10;;;4.70;;
68744;SDS011;55731;45.456;11.064;2022-10-28T15:41:40;13.30;;;4.90;;
68744;SDS011;55731;45.456;11.064;2022-10-28T15:44:29;12.60;;;4.60;;
68744;SDS011;55731;45.456;11.064;2022-10-28T15:47:15;11.30;;;5.00;;
68744;SDS011;55731;45.456;11.064;2022-10-28T15:50:18;14.90;;;4.70;;
68744;SDS011;55731;45.456;11.064;2022-10-28T15:53:30;10.00;;;4.40;;
68744;SDS011;55731;45.456;11.064;2022-10-28T15:56:20;11.00;;;4.30;;
68744;SDS011;55731;45.456;11.064;2022-10-28T15:59:09;9.40;;;4.90;;
68744;SDS011;55731;45.456;11.064;2022-10-28T16:01:50;12.40;;;5.20;;
68744;SDS011;55731;45.456;11.064;2022-10-28T16:04:43;12.20;;;5.10;;
68744;SDS011;55731;45.456;11.064;2022-10-28T16:07:16;16.90;;;5.30;;
68744;SDS011;55731;45.456;11.064;2022-10-28T16:09:50;15.60;;;5.70;;
68744;SDS011;55731;45.456;11.064;2022-10-28T16:12:24;11.00;;;4.90;;